Time;durP1;ratioP1;P1;durP2;ratioP2;P2;SDS_P1;SDS_P2;PMS_P1;PMS_P2;Temp;Humidity;BMP_temperature;BMP_pressure;BME280_temperature;BME280_humidity;BME280_pressure;Samples;Min_cycle;Max_cycle;Signal;HPM_P1;HPM_P2
2022/09/05 00:02:00;;;;;;;7.10;4.22;;;14.10;99.90;;;;;;5027693;28;20080;-63
2022/09/05 00:04:40;;;;;;;10.45;4.80;;;14.10;99.90;;;;;;5030795;28;20061;-61
2022/09/05 00:07:34;;;;;;;8.27;4.32;;;14.10;99.90;;;;;;5030322;28;20458;-63
2022/09/05 00:10:09;;;;;;;8.43;4.80;;;14.10;99.90;;;;;;5028413;28;21083;-63
2022/09/05 00:12:35;;;;;;;9.73;4.15;;;14.10;99.90;;;;;;5030440;28;20045;-63
2022/09/05 00:15:10;;;;;;;10.10;4.55;;;14.20;99.90;;;;;;5028368;28;20653;-64
2022/09/05 00:18:00;;;;;;;11.50;4.00;;;14.20;99.90;;;;;;5029140;28;20029;-63
2022/09/05 00:20:54;;;;;;;7.70;4.35;;;14.20;99.90;;;;;;5027995;28;21060;-63
2022/09/05 00:23:38;;;;;;;7.20;4.43;;;14.20;99.90;;;;;;5025998;28;20033;-63
2022/09/05 00:26:34;;;;;;;10.02;4.78;;;14.20;99.90;;;;;;5028667;28;20033;-63
2022/09/05 00:29:14;;;;;;;6.70;3.88;;;14.20;99.90;;;;;;5027481;28;20033;-63
2022/09/05 00:31:58;;;;;;;7.55;3.85;;;14.10;99.90;;;;;;5029483;28;20091;-63
2022/09/05 00:34:36;;;;;;;9.75;3.72;;;14.00;99.90;;;;;;5024791;28;20105;-63
2022/09/05 00:37:03;;;;;;;10.60;4.05;;;14.00;99.90;;;;;;5028124;28;20046;-63
2022/09/05 00:39:38;;;;;;;11.50;4.45;;;14.00;99.90;;;;;;5028670;28;20029;-63
2022/09/05 00:42:12;;;;;;;9.02;3.90;;;13.90;99.90;;;;;;5014850;28;20159;-62
2022/09/05 00:45:12;;;;;;;7.10;4.32;;;13.90;99.90;;;;;;5029954;28;20549;-64
2022/09/05 00:47:46;;;;;;;7.78;3.72;;;13.80;99.90;;;;;;5011341;28;20045;-62
2022/09/05 00:50:40;;;;;;;7.20;3.70;;;13.80;99.90;;;;;;5028298;28;20060;-63
2022/09/05 00:53:25;;;;;;;8.30;3.53;;;13.70;99.90;;;;;;4999282;28;20556;-63
2022/09/05 00:56:13;;;;;;;8.05;3.97;;;13.60;99.90;;;;;;5025078;28;20038;-63
2022/09/05 00:58:57;;;;;;;7.35;3.78;;;13.50;99.90;;;;;;5023827;28;20025;-63
2022/09/05 01:01:56;;;;;;;5.85;3.83;;;13.50;99.90;;;;;;5026874;28;20363;-65
2022/09/05 01:04:33;;;;;;;6.13;3.28;;;13.50;99.90;;;;;;5028516;28;20041;-63
2022/09/05 01:07:11;;;;;;;7.22;3.85;;;13.50;99.90;;;;;;5027666;28;20040;-63
2022/09/05 01:10:21;;;;;;;4.93;3.47;;;13.60;99.90;;;;;;5029253;28;20474;-62
2022/09/05 01:13:41;;;;;;;7.55;3.80;;;13.60;99.90;;;;;;4986640;28;20042;-62
2022/09/05 01:16:26;;;;;;;6.63;3.55;;;13.60;99.90;;;;;;4889866;29;20040;-63
2022/09/05 01:19:18;;;;;;;8.55;3.40;;;13.50;99.90;;;;;;5014766;28;20049;-64
2022/09/05 01:22:08;;;;;;;7.03;3.45;;;13.50;99.90;;;;;;5020722;28;20045;-64
2022/09/05 01:24:45;;;;;;;6.25;3.50;;;13.40;99.90;;;;;;5028555;28;20033;-63
2022/09/05 01:27:30;;;;;;;6.15;3.55;;;13.30;99.90;;;;;;5028727;28;20148;-63
2022/09/05 01:30:03;;;;;;;5.15;3.25;;;13.40;99.90;;;;;;5024425;28;20026;-63
2022/09/05 01:32:41;;;;;;;14.65;3.80;;;13.40;99.90;;;;;;5028553;28;20042;-62
2022/09/05 01:35:40;;;;;;;8.57;3.55;;;13.30;99.90;;;;;;5023102;28;20279;-62
2022/09/05 01:38:10;;;;;;;7.13;3.30;;;13.20;99.90;;;;;;5007546;28;20030;-63
2022/09/05 01:41:04;;;;;;;8.52;3.40;;;13.20;99.90;;;;;;5019296;28;20459;-63
2022/09/05 01:43:48;;;;;;;6.30;3.80;;;13.20;99.90;;;;;;5027253;28;20042;-64
2022/09/05 01:46:35;;;;;;;5.82;3.17;;;13.30;99.90;;;;;;5027551;28;20128;-64
2022/09/05 01:49:24;;;;;;;7.63;3.88;;;13.30;99.90;;;;;;5026311;28;20029;-63
2022/09/05 01:52:11;;;;;;;7.70;3.92;;;13.20;99.90;;;;;;5028050;28;20057;-65
2022/09/05 01:54:56;;;;;;;8.43;3.95;;;13.10;99.90;;;;;;5028598;28;20080;-63
2022/09/05 01:57:40;;;;;;;7.63;4.10;;;13.10;99.90;;;;;;5028803;28;20041;-61
2022/09/05 02:00:12;;;;;;;8.43;4.25;;;13.20;99.90;;;;;;5023069;28;20029;-62
2022/09/05 02:03:17;;;;;;;7.00;4.00;;;13.20;99.90;;;;;;5017442;28;20080;-63
2022/09/05 02:06:26;;;;;;;7.10;4.45;;;13.20;99.90;;;;;;5025019;28;20060;-63
2022/09/05 02:09:22;;;;;;;9.25;4.00;;;13.10;99.90;;;;;;5026980;28;20084;-64
2022/09/05 02:11:56;;;;;;;7.35;4.07;;;13.10;99.90;;;;;;5028526;28;20470;-63
2022/09/05 02:14:38;;;;;;;6.18;4.10;;;13.10;99.90;;;;;;5027712;28;20033;-63
2022/09/05 02:17:25;;;;;;;9.05;3.83;;;13.10;99.90;;;;;;5023676;28;20240;-64
2022/09/05 02:20:06;;;;;;;6.35;3.50;;;13.00;99.90;;;;;;5024928;28;20035;-64
2022/09/05 02:22:41;;;;;;;10.23;3.70;;;12.90;99.90;;;;;;5025162;28;20037;-63
2022/09/05 02:25:13;;;;;;;5.13;3.50;;;13.00;99.90;;;;;;5028365;28;20120;-62
2022/09/05 02:27:48;;;;;;;7.10;3.70;;;12.90;99.90;;;;;;5027350;28;20022;-62
2022/09/05 02:30:16;;;;;;;7.03;3.97;;;12.80;99.90;;;;;;5026668;28;20053;-63
2022/09/05 02:32:44;;;;;;;10.20;3.63;;;12.80;99.90;;;;;;5029141;28;20042;-63
2022/09/05 02:35:21;;;;;;;8.45;4.57;;;12.80;99.90;;;;;;5027826;28;20742;-62
2022/09/05 02:37:49;;;;;;;6.75;4.07;;;12.70;99.90;;;;;;5027212;28;20053;-63
2022/09/05 02:40:41;;;;;;;6.30;3.70;;;12.70;99.90;;;;;;5018657;28;20078;-63
2022/09/05 02:43:44;;;;;;;8.30;4.05;;;12.70;99.90;;;;;;5023157;28;20049;-62
2022/09/05 02:46:53;;;;;;;7.88;3.35;;;12.60;99.90;;;;;;5027720;28;20616;-63
2022/09/05 02:49:42;;;;;;;10.00;4.13;;;12.60;99.90;;;;;;5021774;28;20045;-64
2022/09/05 02:52:12;;;;;;;13.13;4.80;;;12.50;99.90;;;;;;5019968;28;20131;-63
2022/09/05 02:54:41;;;;;;;7.47;3.92;;;12.50;99.90;;;;;;5031217;28;20025;-63
2022/09/05 02:57:25;;;;;;;6.70;3.53;;;12.50;99.90;;;;;;5031904;28;20565;-63
2022/09/05 03:00:06;;;;;;;5.93;3.80;;;12.50;99.90;;;;;;5029200;28;20036;-64
2022/09/05 03:02:52;;;;;;;9.10;3.70;;;12.50;99.90;;;;;;5030867;28;20608;-62
2022/09/05 03:05:54;;;;;;;10.40;3.63;;;12.50;99.90;;;;;;5029121;28;20036;-63
2022/09/05 03:09:02;;;;;;;9.18;4.00;;;12.50;99.90;;;;;;5022776;28;20058;-63
2022/09/05 03:11:58;;;;;;;7.32;3.80;;;12.50;99.90;;;;;;4998795;28;20076;-63
2022/09/05 03:15:04;;;;;;;8.18;3.63;;;12.50;99.90;;;;;;5030330;28;20018;-61
2022/09/05 03:17:47;;;;;;;6.93;4.15;;;12.50;99.90;;;;;;5028935;28;20080;-62
2022/09/05 03:21:00;;;;;;;9.27;4.18;;;12.50;99.90;;;;;;5022797;28;20073;-64
2022/09/05 03:24:07;;;;;;;7.55;3.75;;;12.50;99.90;;;;;;4998545;28;20053;-62
2022/09/05 03:26:42;;;;;;;7.55;4.53;;;12.50;99.90;;;;;;5011439;28;20508;-65
2022/09/05 03:29:16;;;;;;;7.30;3.90;;;12.50;99.90;;;;;;5031362;28;20037;-62
2022/09/05 03:32:04;;;;;;;9.10;3.80;;;12.50;99.90;;;;;;5031656;28;20100;-63
2022/09/05 03:34:45;;;;;;;9.07;3.75;;;12.50;99.90;;;;;;5012342;28;20033;-63
2022/09/05 03:37:10;;;;;;;;;;;12.50;99.90;;;;;;5011972;28;20022;-63
2022/09/05 03:40:33;;;;;;;10.35;3.95;;;12.50;99.90;;;;;;5030733;28;19920;-64
2022/09/05 03:43:36;;;;;;;10.52;4.25;;;12.50;99.90;;;;;;5027388;28;20057;-63
2022/09/05 03:46:16;;;;;;;7.90;3.97;;;12.60;99.90;;;;;;5026365;28;20037;-64
2022/09/05 03:48:47;;;;;;;11.45;3.88;;;12.60;99.90;;;;;;5031388;28;20034;-62
2022/09/05 03:51:28;;;;;;;7.22;3.90;;;12.60;99.90;;;;;;5027369;28;20048;-63
2022/09/05 03:54:08;;;;;;;;;;;12.50;99.90;;;;;;5028952;28;20419;-62
2022/09/05 03:56:55;;;;;;;8.60;3.75;;;12.50;99.90;;;;;;5022996;28;19913;-62
2022/09/05 03:59:43;;;;;;;7.45;4.22;;;12.40;99.90;;;;;;5025606;28;20084;-64
2022/09/05 04:02:11;;;;;;;7.72;4.18;;;12.40;99.90;;;;;;5029524;28;20041;-61
2022/09/05 04:05:08;;;;;;;8.60;4.25;;;12.40;99.90;;;;;;5030919;28;20029;-62
2022/09/05 04:07:45;;;;;;;6.68;3.88;;;12.40;99.90;;;;;;5030902;28;20113;-63
2022/09/05 04:10:25;;;;;;;7.30;4.45;;;12.30;99.90;;;;;;5029119;28;20032;-62
2022/09/05 04:13:43;;;;;;;7.72;4.22;;;12.30;99.90;;;;;;5030249;28;20544;-62
2022/09/05 04:16:13;;;;;;;9.07;3.67;;;12.30;99.90;;;;;;5015367;28;20037;-63
2022/09/05 04:18:53;;;;;;;7.20;3.80;;;12.30;99.90;;;;;;5027642;28;20036;-63
2022/09/05 04:21:31;;;;;;;9.10;4.95;;;12.30;99.90;;;;;;5028110;28;20084;-62
2022/09/05 04:24:16;;;;;;;6.20;3.85;;;12.30;99.90;;;;;;5029218;28;20569;-62
2022/09/05 04:26:44;;;;;;;6.80;3.67;;;12.20;99.90;;;;;;5028612;28;20700;-62
2022/09/05 04:29:41;;;;;;;7.00;3.78;;;12.20;99.90;;;;;;5027626;28;20056;-62
2022/09/05 04:32:39;;;;;;;7.13;3.60;;;12.20;99.90;;;;;;5018731;28;20065;-63
2022/09/05 04:35:10;;;;;;;9.77;3.65;;;12.20;99.90;;;;;;5029402;28;20423;-63
2022/09/05 04:37:55;;;;;;;8.05;3.88;;;12.10;99.90;;;;;;5028848;28;20488;-62
2022/09/05 04:40:32;;;;;;;6.97;4.20;;;12.10;99.90;;;;;;5027674;28;20895;-62
2022/09/05 04:43:03;;;;;;;7.80;3.88;;;12.10;99.90;;;;;;5024766;28;20038;-62
2022/09/05 04:45:35;;;;;;;14.10;4.00;;;12.20;99.90;;;;;;5028053;28;20029;-62
2022/09/05 04:48:03;;;;;;;6.20;3.42;;;12.20;99.90;;;;;;5028566;28;20107;-62
2022/09/05 04:50:31;;;;;;;6.88;3.85;;;12.20;99.90;;;;;;5028836;28;20163;-64
2022/09/05 04:53:35;;;;;;;7.28;3.53;;;12.20;99.90;;;;;;5029453;28;20049;-62
2022/09/05 04:56:08;;;;;;;6.15;3.60;;;12.20;99.90;;;;;;5021140;28;20104;-63
2022/09/05 04:58:43;;;;;;;8.80;3.78;;;12.20;99.90;;;;;;5028709;28;20018;-63
2022/09/05 05:01:19;;;;;;;6.70;4.00;;;12.30;99.90;;;;;;5026780;28;20025;-63
2022/09/05 05:03:46;;;;;;;8.90;4.40;;;12.30;99.90;;;;;;5029379;28;20056;-63
2022/09/05 05:06:31;;;;;;;7.72;3.50;;;12.40;99.90;;;;;;5027877;28;20038;-62
2022/09/05 05:09:06;;;;;;;6.40;3.88;;;12.50;99.90;;;;;;5029476;28;20045;-63
2022/09/05 05:11:57;;;;;;;6.13;3.78;;;12.40;99.90;;;;;;5026875;28;20380;-63
2022/09/05 05:14:47;;;;;;;8.02;4.88;;;12.50;99.90;;;;;;5027020;28;20112;-63
2022/09/05 05:17:24;;;;;;;7.00;4.18;;;12.60;99.90;;;;;;5026042;28;20045;-63
2022/09/05 05:19:58;;;;;;;6.80;4.13;;;12.70;99.90;;;;;;5028148;28;20095;-63
2022/09/05 05:22:24;;;;;;;6.65;4.10;;;12.80;99.90;;;;;;5026470;28;20107;-62
2022/09/05 05:24:55;;;;;;;6.30;3.60;;;12.90;99.90;;;;;;5026626;28;20073;-62
2022/09/05 05:27:26;;;;;;;6.35;4.00;;;12.90;99.90;;;;;;5026557;28;20021;-62
2022/09/05 05:30:07;;;;;;;7.63;4.60;;;13.00;99.90;;;;;;5028025;28;20029;-62
2022/09/05 05:32:55;;;;;;;6.93;3.40;;;13.20;99.90;;;;;;5029133;28;20057;-62
2022/09/05 05:35:31;;;;;;;5.72;3.78;;;13.20;99.90;;;;;;5027073;28;20693;-62
2022/09/05 05:38:15;;;;;;;6.13;3.90;;;13.30;99.90;;;;;;5029281;28;20034;-62
2022/09/05 05:40:50;;;;;;;7.95;3.65;;;13.50;99.90;;;;;;5025352;28;20022;-63
2022/09/05 05:43:20;;;;;;;10.27;5.18;;;13.60;99.90;;;;;;5022238;28;20040;-62
2022/09/05 05:45:58;;;;;;;5.60;3.50;;;13.60;99.90;;;;;;5028361;28;20117;-62
2022/09/05 05:48:36;;;;;;;11.48;3.78;;;13.60;99.90;;;;;;5024580;28;20038;-63
2022/09/05 05:51:17;;;;;;;9.73;3.88;;;13.50;99.90;;;;;;5014259;28;20072;-62
2022/09/05 05:54:01;;;;;;;6.43;4.00;;;13.50;99.90;;;;;;5028572;28;20048;-62
2022/09/05 05:56:45;;;;;;;5.55;3.33;;;13.40;99.90;;;;;;5026784;28;20037;-63
2022/09/05 05:59:29;;;;;;;8.25;3.75;;;13.40;99.90;;;;;;5013136;28;21539;-63
2022/09/05 06:01:57;;;;;;;8.23;3.65;;;13.40;99.90;;;;;;5027743;28;20052;-63
2022/09/05 06:04:44;;;;;;;6.35;3.75;;;13.50;99.90;;;;;;5026263;28;20056;-63
2022/09/05 06:07:54;;;;;;;8.75;3.28;;;13.50;99.90;;;;;;5027849;28;20061;-61
2022/09/05 06:11:06;;;;;;;12.53;3.70;;;13.50;99.90;;;;;;4985993;28;20125;-62
2022/09/05 06:13:54;;;;;;;6.60;3.80;;;13.50;99.90;;;;;;5018464;28;20025;-62
2022/09/05 06:16:43;;;;;;;5.97;3.88;;;13.80;99.90;;;;;;5023154;28;20552;-62
2022/09/05 06:19:43;;;;;;;6.25;4.03;;;13.80;99.90;;;;;;5027217;28;20096;-62
2022/09/05 06:22:55;;;;;;;6.25;3.60;;;14.10;99.90;;;;;;5028889;28;20045;-63
2022/09/05 06:25:39;;;;;;;9.45;4.30;;;14.40;99.90;;;;;;5031356;28;20025;-61
2022/09/05 06:28:22;;;;;;;8.40;4.18;;;14.60;99.90;;;;;;5021954;28;20025;-62
2022/09/05 06:31:10;;;;;;;9.27;3.75;;;14.70;99.90;;;;;;5030232;28;20059;-62
2022/09/05 06:33:54;;;;;;;9.48;4.30;;;14.80;99.90;;;;;;5032117;28;20039;-63
2022/09/05 06:36:46;;;;;;;7.72;4.20;;;14.90;99.90;;;;;;5029521;28;20037;-61
2022/09/05 06:39:16;;;;;;;9.48;4.63;;;15.10;99.90;;;;;;5032230;28;20069;-61
2022/09/05 06:41:50;;;;;;;9.63;4.35;;;15.10;99.90;;;;;;5030334;28;20033;-64
2022/09/05 06:44:47;;;;;;;11.05;4.35;;;15.30;99.90;;;;;;5031145;28;20033;-63
2022/09/05 06:47:19;;;;;;;7.47;4.88;;;15.40;99.90;;;;;;5019114;28;20049;-62
2022/09/05 06:50:14;;;;;;;13.07;4.80;;;15.40;99.90;;;;;;5031735;28;20100;-62
2022/09/05 06:52:59;;;;;;;6.53;4.47;;;15.50;99.90;;;;;;5030682;28;20124;-61
2022/09/05 06:55:38;;;;;;;7.47;4.50;;;15.60;99.90;;;;;;5031095;28;20628;-63
2022/09/05 06:58:24;;;;;;;7.85;4.25;;;15.80;99.90;;;;;;5031199;28;20029;-62
2022/09/05 07:00:59;;;;;;;10.15;4.53;;;16.10;99.90;;;;;;5031062;28;20092;-63
2022/09/05 07:03:51;;;;;;;10.48;4.90;;;16.40;99.90;;;;;;5029123;28;20803;-64
2022/09/05 07:06:55;;;;;;;7.00;4.43;;;16.60;99.90;;;;;;5026097;28;20091;-62
2022/09/05 07:09:26;;;;;;;12.73;4.28;;;16.80;99.90;;;;;;5030810;28;20107;-63
2022/09/05 07:12:02;;;;;;;6.43;4.47;;;17.10;99.90;;;;;;5029526;28;20069;-62
2022/09/05 07:14:34;;;;;;;10.38;4.78;;;17.30;99.90;;;;;;5030550;28;20033;-62
2022/09/05 07:17:17;;;;;;;7.63;4.95;;;17.50;99.90;;;;;;5032142;28;20026;-63
2022/09/05 07:19:55;;;;;;;7.95;4.57;;;17.80;99.90;;;;;;5027507;28;20040;-63
2022/09/05 07:22:47;;;;;;;7.88;4.53;;;18.00;99.90;;;;;;5030400;28;20029;-63
2022/09/05 07:25:20;;;;;;;11.20;5.05;;;18.20;99.90;;;;;;5022359;28;20059;-63
2022/09/05 07:28:04;;;;;;;7.57;4.05;;;18.50;99.90;;;;;;5031583;28;20043;-61
2022/09/05 07:30:32;;;;;;;8.63;4.43;;;18.70;99.90;;;;;;5018243;28;20180;-62
2022/09/05 07:33:00;;;;;;;7.63;4.07;;;19.00;99.90;;;;;;5030417;28;20045;-61
2022/09/05 07:35:29;;;;;;;7.63;3.60;;;19.30;99.90;;;;;;5027558;28;20095;-63
2022/09/05 07:38:00;;;;;;;8.90;4.10;;;19.40;99.90;;;;;;5029785;28;20529;-63
2022/09/05 07:40:28;;;;;;;5.78;3.55;;;19.60;99.90;;;;;;5030271;28;20059;-62
2022/09/05 07:43:14;;;;;;;6.72;3.58;;;19.80;99.90;;;;;;5031049;28;20807;-62
2022/09/05 07:45:47;;;;;;;8.10;3.88;;;20.10;99.90;;;;;;5029901;28;20095;-61
2022/09/05 07:48:26;;;;;;;4.63;3.28;;;20.30;99.90;;;;;;5029826;28;20111;-62
2022/09/05 07:51:01;;;;;;;4.90;3.35;;;20.50;99.90;;;;;;5031570;28;20044;-63
2022/09/05 07:53:29;;;;;;;7.32;3.17;;;20.70;99.90;;;;;;5028984;28;20044;-63
2022/09/05 07:56:01;;;;;;;5.15;3.05;;;21.00;99.90;;;;;;5031117;28;20033;-62
2022/09/05 07:58:49;;;;;;;6.10;3.28;;;21.20;99.90;;;;;;5027645;28;20398;-61
2022/09/05 08:01:18;;;;;;;8.75;3.00;;;21.40;99.90;;;;;;5029394;28;20078;-62
2022/09/05 08:03:44;;;;;;;5.20;3.78;;;21.60;99.90;;;;;;5029711;28;20037;-62
2022/09/05 08:06:22;;;;;;;5.75;3.28;;;21.80;99.90;;;;;;5025024;28;20037;-62
2022/09/05 08:09:11;;;;;;;4.57;2.75;;;22.00;99.90;;;;;;5026108;28;20116;-62
2022/09/05 08:11:38;;;;;;;4.72;3.00;;;22.20;99.90;;;;;;5030853;28;20060;-62
2022/09/05 08:14:19;;;;;;;4.60;2.95;;;22.40;99.90;;;;;;5029408;28;20033;-62
2022/09/05 08:16:45;;;;;;;4.18;2.53;;;22.50;99.90;;;;;;5029684;28;20029;-63
2022/09/05 08:19:29;;;;;;;6.10;2.53;;;22.50;99.90;;;;;;5029221;28;20040;-61
2022/09/05 08:21:58;;;;;;;5.32;2.60;;;22.70;99.90;;;;;;5020824;28;20042;-63
2022/09/05 08:24:25;;;;;;;4.22;2.55;;;22.80;99.90;;;;;;5027402;28;20060;-62
2022/09/05 08:27:12;;;;;;;4.28;2.53;;;23.00;99.90;;;;;;5030836;28;20025;-62
2022/09/05 08:29:42;;;;;;;3.50;2.42;;;23.20;99.90;;;;;;5028340;28;20050;-63
2022/09/05 08:32:13;;;;;;;4.97;2.55;;;23.30;99.90;;;;;;5030256;28;20144;-62
2022/09/05 08:34:50;;;;;;;4.13;2.47;;;23.40;99.90;;;;;;5027985;28;20113;-62
2022/09/05 08:37:21;;;;;;;3.95;2.20;;;23.40;99.90;;;;;;5029346;28;20025;-62
2022/09/05 08:39:56;;;;;;;5.20;2.50;;;23.50;99.90;;;;;;5029413;28;20040;-62
2022/09/05 08:42:27;;;;;;;5.22;2.42;;;23.50;99.90;;;;;;5028382;28;20137;-62
2022/09/05 08:44:56;;;;;;;3.70;2.33;;;23.70;99.90;;;;;;5029974;28;20037;-62
2022/09/05 08:47:34;;;;;;;2.85;2.22;;;23.80;99.90;;;;;;5026902;28;20308;-62
2022/09/05 08:50:14;;;;;;;2.80;2.30;;;23.90;99.90;;;;;;5030109;28;20032;-62
2022/09/05 08:52:55;;;;;;;7.68;2.15;;;24.00;99.90;;;;;;5029772;28;20037;-61
2022/09/05 08:55:30;;;;;;;3.95;2.35;;;24.00;99.90;;;;;;5026557;28;20113;-63
2022/09/05 08:58:08;;;;;;;3.72;2.40;;;24.20;99.90;;;;;;5029392;28;20040;-63
2022/09/05 09:00:45;;;;;;;5.57;2.40;;;24.20;99.90;;;;;;5019626;28;20049;-63
2022/09/05 09:03:50;;;;;;;4.65;2.50;;;24.30;99.90;;;;;;5028466;28;20046;-61
2022/09/05 09:06:42;;;;;;;3.95;2.60;;;24.50;99.90;;;;;;5027959;28;20088;-64
2022/09/05 09:09:26;;;;;;;4.65;2.40;;;24.50;99.90;;;;;;5007652;28;20120;-61
2022/09/05 09:12:07;;;;;;;4.45;2.47;;;24.50;99.90;;;;;;5030599;28;20036;-61
2022/09/05 09:14:35;;;;;;;4.38;2.13;;;24.80;99.90;;;;;;5026817;28;20025;-62
2022/09/05 09:17:30;;;;;;;4.75;2.20;;;24.60;99.90;;;;;;5029035;28;20385;-62
2022/09/05 09:19:56;;;;;;;4.10;2.30;;;24.80;99.90;;;;;;5025916;28;20204;-62
2022/09/05 09:22:56;;;;;;;5.90;2.20;;;24.90;99.90;;;;;;5029164;28;20128;-62
2022/09/05 09:25:37;;;;;;;3.28;2.17;;;24.90;99.90;;;;;;5027453;28;20092;-63
2022/09/05 09:28:38;;;;;;;3.67;2.47;;;25.10;99.90;;;;;;5028998;28;20462;-64
2022/09/05 09:31:29;;;;;;;5.85;2.33;;;25.20;99.90;;;;;;5027704;28;20045;-64
2022/09/05 09:34:12;;;;;;;;;;;25.20;99.90;;;;;;5029726;28;20041;-64
2022/09/05 09:36:56;;;;;;;3.00;2.33;;;25.10;99.90;;;;;;5025680;28;20417;-63
2022/09/05 09:39:49;;;;;;;3.85;2.25;;;25.20;99.90;;;;;;5027854;28;20039;-63
2022/09/05 09:42:44;;;;;;;4.93;2.20;;;25.50;99.90;;;;;;5012884;28;20038;-62
2022/09/05 09:45:21;;;;;;;4.47;2.28;;;25.70;98.80;;;;;;5023451;28;20033;-63
2022/09/05 09:48:17;;;;;;;3.08;2.10;;;25.70;99.20;;;;;;5027117;28;20030;-63
2022/09/05 09:51:00;;;;;;;3.30;2.10;;;25.60;98.70;;;;;;5017874;28;20046;-63
2022/09/05 09:53:57;;;;;;;5.60;2.30;;;25.50;98.60;;;;;;5026172;28;20430;-63
2022/09/05 09:56:54;;;;;;;3.90;2.00;;;25.70;98.20;;;;;;5012672;28;20426;-62
2022/09/05 10:00:08;;;;;;;2.47;2.10;;;25.90;99.00;;;;;;5025518;28;20127;-63
2022/09/05 10:03:07;;;;;;;2.58;1.95;;;26.10;96.50;;;;;;4984154;28;20039;-63
2022/09/05 10:05:54;;;;;;;7.85;2.20;;;26.10;97.30;;;;;;4985272;28;20049;-62
2022/09/05 10:08:38;;;;;;;5.30;2.38;;;26.00;96.30;;;;;;5024026;28;20052;-63
2022/09/05 10:11:16;;;;;;;3.25;2.20;;;26.00;97.10;;;;;;5026637;28;20083;-61
2022/09/05 10:13:54;;;;;;;4.25;2.15;;;26.00;97.10;;;;;;5026130;28;20045;-63
2022/09/05 10:16:26;;;;;;;2.72;2.00;;;26.20;95.60;;;;;;5026858;28;20033;-62
2022/09/05 10:19:08;;;;;;;3.95;2.03;;;26.10;94.90;;;;;;5027419;28;20033;-64
2022/09/05 10:21:40;;;;;;;4.40;1.80;;;25.90;96.00;;;;;;5028215;28;20100;-63
2022/09/05 10:24:11;;;;;;;4.32;2.15;;;26.00;96.00;;;;;;5028099;28;20037;-63
2022/09/05 10:27:07;;;;;;;3.25;2.03;;;26.40;95.60;;;;;;5026999;28;20108;-62
2022/09/05 10:30:03;;;;;;;6.72;2.20;;;26.80;94.00;;;;;;5016792;28;20103;-62
2022/09/05 10:32:53;;;;;;;4.50;2.00;;;27.00;93.20;;;;;;5026898;28;20053;-62
2022/09/05 10:35:27;;;;;;;2.90;2.10;;;27.00;93.70;;;;;;5028888;28;20164;-62
2022/09/05 10:38:13;;;;;;;3.65;2.15;;;27.20;92.50;;;;;;5027220;28;20033;-63
2022/09/05 10:40:43;;;;;;;2.85;2.20;;;27.20;92.10;;;;;;5027287;28;20025;-62
2022/09/05 10:43:09;;;;;;;3.22;2.00;;;27.10;91.30;;;;;;5026374;28;20363;-64
2022/09/05 10:45:56;;;;;;;5.07;2.25;;;27.00;92.00;;;;;;5024321;28;20116;-63
2022/09/05 10:48:39;;;;;;;2.80;1.83;;;27.00;91.50;;;;;;5024347;28;20029;-63
2022/09/05 10:51:28;;;;;;;3.25;1.92;;;26.80;92.30;;;;;;5027937;28;20113;-63
2022/09/05 10:54:00;;;;;;;4.10;2.58;;;26.90;92.90;;;;;;5028026;28;20470;-65
2022/09/05 10:56:36;;;;;;;3.03;2.15;;;27.00;91.50;;;;;;5024970;28;20029;-61
2022/09/05 10:59:03;;;;;;;2.72;2.30;;;27.30;89.80;;;;;;5028092;28;20791;-61
2022/09/05 11:01:34;;;;;;;3.08;2.38;;;27.30;89.70;;;;;;5028192;28;20470;-63
2022/09/05 11:04:12;;;;;;;7.90;2.35;;;27.40;86.40;;;;;;5027019;28;20494;-64
2022/09/05 11:06:43;;;;;;;3.28;2.13;;;27.20;88.60;;;;;;5025386;28;20033;-63
2022/09/05 11:09:32;;;;;;;2.65;2.10;;;27.40;88.70;;;;;;5027705;28;20045;-63
2022/09/05 11:12:27;;;;;;;3.85;2.38;;;27.70;87.40;;;;;;5020060;28;20068;-64
2022/09/05 11:14:57;;;;;;;10.60;2.63;;;28.00;84.50;;;;;;5032378;28;20061;-63
2022/09/05 11:17:38;;;;;;;5.25;2.78;;;28.20;87.80;;;;;;5028704;28;20121;-63
2022/09/05 11:20:30;;;;;;;4.00;2.65;;;28.10;83.00;;;;;;5032242;28;20489;-62
2022/09/05 11:23:02;;;;;;;4.43;2.30;;;27.90;85.10;;;;;;5029731;28;20080;-63
2022/09/05 11:25:30;;;;;;;4.63;2.25;;;28.10;83.80;;;;;;5029715;28;20037;-63
2022/09/05 11:27:59;;;;;;;2.30;2.05;;;28.40;86.20;;;;;;5032509;28;20030;-61
2022/09/05 11:30:29;;;;;;;3.28;2.00;;;28.60;86.10;;;;;;5029032;28;20124;-63
2022/09/05 11:33:29;;;;;;;3.78;2.28;;;28.80;80.10;;;;;;5031246;28;20060;-62
2022/09/05 11:36:23;;;;;;;3.40;2.38;;;28.80;76.80;;;;;;5030733;28;20513;-63
2022/09/05 11:39:11;;;;;;;2.72;2.30;;;28.90;81.50;;;;;;5031201;28;20040;-63
2022/09/05 11:42:04;;;;;;;3.80;2.17;;;28.90;77.60;;;;;;5027689;28;20044;-63
2022/09/05 11:44:38;;;;;;;4.57;2.20;;;29.00;78.40;;;;;;5029642;28;20462;-62
2022/09/05 11:47:25;;;;;;;2.65;2.22;;;29.30;75.30;;;;;;5030595;28;20033;-63
2022/09/05 11:50:40;;;;;;;3.78;2.30;;;29.00;74.70;;;;;;5030412;28;20120;-64
2022/09/05 11:53:36;;;;;;;5.10;2.30;;;28.80;78.80;;;;;;5013732;28;20134;-63
2022/09/05 11:56:07;;;;;;;3.33;2.05;;;29.20;78.70;;;;;;5029290;28;20402;-62
2022/09/05 11:58:54;;;;;;;3.40;2.22;;;29.60;76.30;;;;;;5028606;28;20076;-62
2022/09/05 12:01:48;;;;;;;5.60;2.38;;;29.60;69.70;;;;;;5030898;28;20034;-63
2022/09/05 12:04:19;;;;;;;2.65;2.40;;;29.30;71.10;;;;;;5011560;28;20042;-62
2022/09/05 12:06:56;;;;;;;3.78;2.22;;;29.10;70.00;;;;;;5023683;28;20031;-63
2022/09/05 12:09:33;;;;;;;4.28;2.17;;;29.10;72.70;;;;;;5011224;28;20163;-61
2022/09/05 12:12:56;;;;;;;4.88;2.30;;;29.10;71.60;;;;;;5028706;28;20045;-63
2022/09/05 12:15:33;;;;;;;6.13;2.03;;;29.20;71.30;;;;;;4966939;28;20197;-62
2022/09/05 12:18:29;;;;;;;2.45;2.20;;;29.40;73.60;;;;;;5028336;28;20546;-61
2022/09/05 12:21:31;;;;;;;5.35;2.40;;;29.50;73.70;;;;;;5023705;28;20053;-63
2022/09/05 12:24:13;;;;;;;3.80;2.40;;;29.40;70.50;;;;;;5014254;28;20066;-61
2022/09/05 12:27:03;;;;;;;3.42;2.20;;;29.10;72.80;;;;;;5027341;28;20036;-63
2022/09/05 12:29:33;;;;;;;;;;;29.00;72.90;;;;;;5029433;28;20455;-62
2022/09/05 12:32:00;;;;;;;2.63;2.35;;;29.10;67.40;;;;;;5029732;28;19996;-62
2022/09/05 12:34:58;;;;;;;2.35;2.00;;;29.30;76.20;;;;;;5028247;28;20030;-65
2022/09/05 12:37:23;;;;;;;10.48;2.58;;;29.60;71.50;;;;;;5029395;28;20053;-63
2022/09/05 12:39:55;;;;;;;5.97;2.50;;;29.10;69.40;;;;;;5028942;28;20084;-63
2022/09/05 12:42:45;;;;;;;4.18;2.15;;;28.30;68.90;;;;;;5028108;28;20033;-63
2022/09/05 12:45:41;;;;;;;5.10;2.42;;;28.10;72.70;;;;;;5028763;28;20104;-62
2022/09/05 12:48:41;;;;;;;3.53;2.10;;;28.40;67.70;;;;;;5027931;28;20045;-62
2022/09/05 12:51:18;;;;;;;2.88;2.10;;;28.60;71.60;;;;;;5010498;28;20072;-63
2022/09/05 12:53:51;;;;;;;5.70;2.55;;;29.00;73.30;;;;;;5019127;28;20095;-64
2022/09/05 12:56:52;;;;;;;2.58;2.10;;;28.90;70.20;;;;;;5030249;28;20036;-62
2022/09/05 12:59:22;;;;;;;5.25;2.33;;;29.00;70.90;;;;;;5029586;28;20033;-62
2022/09/05 13:02:04;;;;;;;2.63;2.10;;;29.40;71.30;;;;;;5027394;28;20494;-64
2022/09/05 13:04:57;;;;;;;3.67;2.40;;;29.70;69.40;;;;;;5029528;28;20091;-63
2022/09/05 13:07:47;;;;;;;3.22;2.20;;;29.60;63.40;;;;;;5028737;28;20030;-62
2022/09/05 13:10:15;;;;;;;4.75;2.40;;;29.30;70.10;;;;;;5016901;28;20046;-63
2022/09/05 13:12:51;;;;;;;6.68;2.53;;;29.40;66.30;;;;;;5026650;28;20108;-62
2022/09/05 13:15:34;;;;;;;4.10;2.05;;;29.30;66.20;;;;;;5026585;28;20052;-62
2022/09/05 13:18:14;;;;;;;3.28;2.40;;;29.00;64.70;;;;;;5029817;28;20112;-62
2022/09/05 13:20:49;;;;;;;4.15;2.33;;;28.90;66.80;;;;;;5027399;28;20029;-63
2022/09/05 13:23:20;;;;;;;4.43;2.72;;;28.90;65.60;;;;;;5025023;28;20037;-63
2022/09/05 13:26:04;;;;;;;3.60;2.38;;;29.00;64.90;;;;;;5024317;28;20045;-63
2022/09/05 13:28:51;;;;;;;5.00;2.22;;;28.80;65.80;;;;;;5027839;28;20029;-63
2022/09/05 13:31:35;;;;;;;4.53;2.20;;;28.50;67.80;;;;;;5025965;28;20073;-63
2022/09/05 13:34:10;;;;;;;4.78;2.25;;;28.60;68.20;;;;;;5027921;28;20038;-64
2022/09/05 13:36:49;;;;;;;5.40;2.30;;;28.80;65.40;;;;;;5027406;28;20087;-64
2022/09/05 13:39:19;;;;;;;4.72;2.42;;;29.00;66.50;;;;;;5028025;28;20108;-63
2022/09/05 13:42:02;;;;;;;2.70;2.00;;;29.00;62.60;;;;;;5027716;28;20047;-63
2022/09/05 13:44:35;;;;;;;3.97;2.40;;;29.10;65.30;;;;;;5027539;28;20037;-63
2022/09/05 13:47:20;;;;;;;2.95;2.25;;;29.10;70.80;;;;;;5028611;28;20061;-63
2022/09/05 13:50:24;;;;;;;3.33;2.40;;;29.50;66.40;;;;;;5027125;28;20444;-63
2022/09/05 13:53:01;;;;;;;4.55;2.75;;;29.90;65.00;;;;;;4995170;28;20716;-64
2022/09/05 13:55:52;;;;;;;3.40;2.20;;;29.80;62.00;;;;;;5021397;28;20474;-63
2022/09/05 13:58:33;;;;;;;3.20;2.17;;;29.20;68.20;;;;;;5025458;28;20381;-63
2022/09/05 14:01:20;;;;;;;3.25;2.20;;;29.10;61.50;;;;;;5022479;28;20105;-63
2022/09/05 14:03:48;;;;;;;4.35;2.70;;;29.10;60.40;;;;;;5024579;28;20510;-63
2022/09/05 14:06:29;;;;;;;2.80;2.22;;;29.00;61.00;;;;;;5028319;28;20041;-63
2022/09/05 14:09:16;;;;;;;3.97;2.30;;;28.50;62.30;;;;;;5019781;28;20034;-63